Time;durP1;ratioP1;P1;durP2;ratioP2;P2;SDS_P1;SDS_P2;PMS_P1;PMS_P2;Temp;Humidity;BMP_temperature;BMP_pressure;BME280_temperature;BME280_humidity;BME280_pressure;Samples;Min_cycle;Max_cycle;Signal;HPM_P1;HPM_P2
2023/07/11 04:02:21;;;;;;;6.50;4.60;;;22.40;99.90;;;;;;5116947;23;20045;-73
2023/07/11 04:04:49;;;;;;;6.80;4.88;;;22.40;99.90;;;;;;5014811;28;20363;-73
2023/07/11 04:07:15;;;;;;;8.02;5.00;;;22.40;99.90;;;;;;4995298;28;20148;-73
2023/07/11 04:09:41;;;;;;;5.13;4.45;;;22.40;99.90;;;;;;5014283;28;20065;-73
2023/07/11 04:12:08;;;;;;;8.02;4.85;;;22.40;99.90;;;;;;4996736;28;20038;-73
2023/07/11 04:14:34;;;;;;;7.50;4.80;;;22.50;99.90;;;;;;4997733;28;20037;-73
2023/07/11 04:17:00;;;;;;;7.28;4.40;;;22.40;99.90;;;;;;5007339;28;20018;-73
2023/07/11 04:19:25;;;;;;;;;;;22.40;99.90;;;;;;5002267;28;20120;-72
2023/07/11 04:21:51;;;;;;;5.80;4.13;;;22.30;99.90;;;;;;5017439;28;19932;-73
2023/07/11 04:24:16;;;;;;;5.97;4.03;;;22.20;99.90;;;;;;5018186;28;20033;-73
2023/07/11 04:26:42;;;;;;;;;;;22.10;99.90;;;;;;5019149;28;20478;-73
2023/07/11 04:29:07;;;;;;;10.82;4.18;;;22.10;99.90;;;;;;5019671;28;19909;-73
2023/07/11 04:31:33;;;;;;;10.50;4.20;;;22.10;99.90;;;;;;5019583;28;20048;-73
2023/07/11 04:33:58;;;;;;;6.40;4.72;;;22.10;99.90;;;;;;5018865;28;20057;-72
2023/07/11 04:36:24;;;;;;;6.72;4.80;;;22.10;99.90;;;;;;5023857;28;20057;-72
2023/07/11 04:38:50;;;;;;;5.72;3.72;;;22.20;99.90;;;;;;5009076;28;20039;-73
2023/07/11 04:41:15;;;;;;;8.13;4.30;;;22.30;99.90;;;;;;4998638;28;20027;-71
2023/07/11 04:43:41;;;;;;;7.63;4.40;;;22.30;99.90;;;;;;4978530;28;20034;-71
2023/07/11 04:46:08;;;;;;;6.55;4.22;;;22.40;99.90;;;;;;4978476;28;20446;-71
2023/07/11 04:48:34;;;;;;;9.43;4.70;;;22.50;99.90;;;;;;4994852;28;20041;-71
2023/07/11 04:51:06;;;;;;;5.70;4.25;;;22.60;99.90;;;;;;4979671;28;20018;-71
2023/07/11 04:53:32;;;;;;;5.43;4.28;;;22.70;99.90;;;;;;4979745;28;20027;-71
2023/07/11 04:56:01;;;;;;;6.82;4.15;;;22.80;99.90;;;;;;4980271;28;20031;-71
2023/07/11 04:58:30;;;;;;;5.80;4.20;;;23.00;99.90;;;;;;5001850;28;20026;-71
2023/07/11 05:01:05;;;;;;;8.68;4.50;;;22.90;99.90;;;;;;5000671;28;20065;-71
2023/07/11 05:03:31;;;;;;;6.50;4.40;;;23.10;99.90;;;;;;5007589;28;20124;-71
2023/07/11 05:05:57;;;;;;;9.30;4.60;;;23.10;99.90;;;;;;4998089;28;20076;-70
2023/07/11 05:08:23;;;;;;;;;;;23.10;99.90;;;;;;5002342;28;20061;-71
2023/07/11 05:10:58;;;;;;;8.48;4.85;;;23.10;99.90;;;;;;5002571;28;19932;-71
2023/07/11 05:13:23;;;;;;;12.05;5.22;;;23.10;99.90;;;;;;5020416;28;20018;-73
2023/07/11 05:15:49;;;;;;;8.75;4.93;;;23.20;99.90;;;;;;5003381;28;20049;-72
2023/07/11 05:18:14;;;;;;;;;;;23.20;99.90;;;;;;5013923;28;20037;-71
2023/07/11 05:20:40;;;;;;;7.35;4.90;;;23.30;99.90;;;;;;5014657;28;19935;-71
2023/07/11 05:23:05;;;;;;;;;;;23.30;99.90;;;;;;5032273;28;20030;-72
2023/07/11 05:25:31;;;;;;;9.52;4.90;;;23.30;99.90;;;;;;5011989;28;19909;-72
2023/07/11 05:27:56;;;;;;;;;;;23.30;99.90;;;;;;5009568;28;20029;-71
2023/07/11 05:30:22;;;;;;;11.48;5.72;;;23.30;99.90;;;;;;5008684;28;20004;-71
2023/07/11 05:32:47;;;;;;;;;;;23.40;99.90;;;;;;5010579;28;20030;-71
2023/07/11 05:35:13;;;;;;;11.65;5.20;;;23.50;99.90;;;;;;5011502;28;19913;-71
2023/07/11 05:37:38;;;;;;;;;;;23.30;99.90;;;;;;5010719;28;20022;-71
2023/07/11 05:40:05;;;;;;;8.70;5.68;;;23.30;99.90;;;;;;5033065;28;19928;-70
2023/07/11 05:42:30;;;;;;;16.25;5.47;;;23.10;99.90;;;;;;5030950;28;20106;-70
2023/07/11 05:44:56;;;;;;;8.43;4.90;;;23.00;99.90;;;;;;5027390;28;20022;-70
2023/07/11 05:47:22;;;;;;;;;;;23.00;99.90;;;;;;5007303;28;20040;-71
2023/07/11 05:49:47;;;;;;;11.93;5.47;;;23.00;99.90;;;;;;5015566;28;20380;-72
2023/07/11 05:52:13;;;;;;;;;;;23.10;99.90;;;;;;5017918;28;20026;-72
2023/07/11 05:54:38;;;;;;;9.20;4.93;;;23.20;99.90;;;;;;5017995;28;19959;-71
2023/07/11 05:57:04;;;;;;;;;;;23.40;99.90;;;;;;5018041;28;20116;-71
2023/07/11 05:59:30;;;;;;;10.05;5.10;;;23.50;99.90;;;;;;5017549;28;20311;-72
2023/07/11 06:01:55;;;;;;;;;;;23.60;99.90;;;;;;4999739;28;20499;-72
2023/07/11 06:04:21;;;;;;;6.43;4.88;;;23.50;99.90;;;;;;5000906;28;19981;-72
2023/07/11 06:06:46;;;;;;;8.43;5.22;;;23.60;99.90;;;;;;4998704;28;20150;-73
2023/07/11 06:09:16;;;;;;;;;;;23.60;99.90;;;;;;5018418;28;20038;-71
2023/07/11 06:11:43;;;;;;;7.38;4.70;;;23.70;99.90;;;;;;5001819;28;19910;-71
2023/07/11 06:14:09;;;;;;;8.85;5.55;;;23.80;99.90;;;;;;4998885;28;20422;-71
2023/07/11 06:16:37;;;;;;;;;;;23.80;99.80;;;;;;4998987;28;20040;-70
2023/07/11 06:19:04;;;;;;;8.32;4.63;;;23.80;99.80;;;;;;5001177;28;19906;-71
2023/07/11 06:21:30;;;;;;;7.93;4.90;;;23.80;99.40;;;;;;5019390;28;20394;-69
2023/07/11 06:23:56;;;;;;;8.52;5.78;;;23.90;99.20;;;;;;5015015;28;20080;-67
2023/07/11 06:26:22;;;;;;;;;;;24.00;99.20;;;;;;5015807;28;20034;-67
2023/07/11 06:28:47;;;;;;;7.13;4.60;;;24.10;98.70;;;;;;5014565;28;19909;-67
2023/07/11 06:31:13;;;;;;;;;;;24.20;98.20;;;;;;5015672;28;20029;-66
2023/07/11 06:33:38;;;;;;;8.25;4.82;;;24.40;97.20;;;;;;5015742;28;19955;-66
2023/07/11 06:36:05;;;;;;;;;;;24.40;96.50;;;;;;5015822;28;20030;-66
2023/07/11 06:38:30;;;;;;;6.93;5.03;;;24.50;96.10;;;;;;5015159;28;19905;-66
2023/07/11 06:40:56;;;;;;;;;;;24.50;96.20;;;;;;5015891;28;20506;-67
2023/07/11 06:43:24;;;;;;;9.70;4.80;;;24.50;96.30;;;;;;5015142;28;19916;-66
2023/07/11 06:45:53;;;;;;;8.65;4.65;;;24.70;96.10;;;;;;5015593;28;20052;-67
2023/07/11 06:48:20;;;;;;;8.07;4.30;;;24.70;95.90;;;;;;5016411;28;20103;-67
2023/07/11 06:50:57;;;;;;;8.65;4.65;;;24.90;95.70;;;;;;5017488;28;20022;-67
2023/07/11 06:53:28;;;;;;;8.30;4.70;;;24.80;95.50;;;;;;5015788;28;20029;-67
2023/07/11 06:55:54;;;;;;;5.68;4.35;;;24.90;95.50;;;;;;5015587;28;20022;-67
2023/07/11 06:58:20;;;;;;;6.20;4.53;;;25.00;95.40;;;;;;5015321;28;20022;-66
2023/07/11 07:01:00;;;;;;;;;;;25.10;95.00;;;;;;5015184;28;20034;-67
2023/07/11 07:03:25;;;;;;;6.13;4.60;;;25.20;95.00;;;;;;5015276;28;19997;-67
2023/07/11 07:05:51;;;;;;;;;;;25.30;95.10;;;;;;5015468;28;20116;-66
2023/07/11 07:08:19;;;;;;;8.25;4.95;;;25.30;95.10;;;;;;5015086;28;19910;-66
2023/07/11 07:10:46;;;;;;;7.15;4.43;;;25.30;95.00;;;;;;5015003;28;20022;-67
2023/07/11 07:13:12;;;;;;;8.40;5.05;;;25.40;94.60;;;;;;5014589;28;20543;-65
2023/07/11 07:15:37;;;;;;;;;;;25.40;94.50;;;;;;5016245;28;20108;-67
2023/07/11 07:18:03;;;;;;;6.88;4.38;;;25.40;94.60;;;;;;5013788;28;19906;-66
2023/07/11 07:20:28;;;;;;;;;;;25.50;94.50;;;;;;5014759;28;20030;-66
2023/07/11 07:22:54;;;;;;;9.13;5.07;;;25.60;94.50;;;;;;4996488;28;19912;-66
2023/07/11 07:25:19;;;;;;;8.65;4.72;;;25.70;94.40;;;;;;5014576;28;20030;-67
2023/07/11 07:27:45;;;;;;;7.40;4.55;;;25.50;94.70;;;;;;5014081;28;20129;-66
2023/07/11 07:30:11;;;;;;;;;;;25.60;94.50;;;;;;5014967;28;20030;-66
2023/07/11 07:32:37;;;;;;;10.57;5.10;;;25.70;94.50;;;;;;4996646;28;19905;-67
2023/07/11 07:35:03;;;;;;;;;;;25.60;94.60;;;;;;5014510;28;20025;-66
2023/07/11 07:37:28;;;;;;;8.32;4.70;;;25.60;94.70;;;;;;4996299;28;19905;-66
2023/07/11 07:39:54;;;;;;;8.35;5.28;;;25.80;94.60;;;;;;5013990;28;20030;-67
2023/07/11 07:42:19;;;;;;;8.18;5.00;;;26.00;93.80;;;;;;5014116;28;20080;-66
2023/07/11 07:44:45;;;;;;;8.88;5.00;;;26.00;94.00;;;;;;5014220;28;20474;-67
2023/07/11 07:47:10;;;;;;;;;;;26.10;94.10;;;;;;4997007;28;20520;-67
2023/07/11 07:49:36;;;;;;;5.22;4.43;;;26.20;93.90;;;;;;5013968;28;19972;-66
2023/07/11 07:52:01;;;;;;;;;;;26.30;93.70;;;;;;5013969;28;20030;-67
2023/07/11 07:54:27;;;;;;;8.25;4.70;;;26.50;93.70;;;;;;5014217;28;19956;-66
2023/07/11 07:56:53;;;;;;;8.70;4.70;;;26.60;93.50;;;;;;5013982;28;20029;-67
2023/07/11 07:59:19;;;;;;;7.93;4.55;;;26.90;93.00;;;;;;5013929;28;20045;-67
2023/07/11 08:01:45;;;;;;;8.73;4.68;;;27.00;92.90;;;;;;5014322;28;20069;-66
2023/07/11 08:04:10;;;;;;;8.43;4.50;;;27.20;92.80;;;;;;4996266;28;20037;-67
2023/07/11 08:06:36;;;;;;;10.38;4.82;;;27.40;92.70;;;;;;5013426;28;20022;-66
2023/07/11 08:09:01;;;;;;;9.32;4.63;;;27.70;92.30;;;;;;5013416;28;20500;-67
2023/07/11 08:11:27;;;;;;;7.97;4.53;;;28.00;92.10;;;;;;5013539;28;20029;-67
2023/07/11 08:13:53;;;;;;;8.73;4.45;;;27.90;91.90;;;;;;5013837;28;20470;-66
2023/07/11 08:16:18;;;;;;;4.95;3.90;;;28.40;92.20;;;;;;5013526;28;20383;-67
2023/07/11 08:18:44;;;;;;;7.80;4.43;;;29.90;91.20;;;;;;5013810;28;20032;-67
2023/07/11 08:21:10;;;;;;;8.15;5.03;;;32.60;87.30;;;;;;5014107;28;20037;-66
2023/07/11 08:23:35;;;;;;;5.57;4.03;;;35.20;81.00;;;;;;5013397;28;20092;-66
2023/07/11 08:26:01;;;;;;;6.10;4.05;;;37.20;75.20;;;;;;5013764;28;20026;-67
2023/07/11 08:28:26;;;;;;;10.05;4.55;;;39.30;71.10;;;;;;5013754;28;20474;-67
2023/07/11 08:30:52;;;;;;;7.30;4.65;;;40.70;66.90;;;;;;5013875;28;20025;-67
2023/07/11 08:33:17;;;;;;;8.43;5.85;;;41.60;64.50;;;;;;5014216;28;20029;-68
2023/07/11 08:35:43;;;;;;;5.75;3.78;;;41.80;62.60;;;;;;5013694;28;20049;-67
2023/07/11 08:38:11;;;;;;;8.35;4.45;;;42.50;61.50;;;;;;5013631;28;20022;-67
2023/07/11 08:40:43;;;;;;;6.53;4.40;;;43.30;60.10;;;;;;5014262;28;20435;-66
2023/07/11 08:43:17;;;;;;;6.40;4.43;;;44.20;59.10;;;;;;5013710;28;20033;-66
2023/07/11 08:46:05;;;;;;;12.85;4.72;;;44.80;57.60;;;;;;5013596;28;20041;-66
2023/07/11 08:48:43;;;;;;;7.32;4.85;;;45.40;56.90;;;;;;5014046;28;20052;-66
2023/07/11 08:51:34;;;;;;;5.30;3.95;;;44.30;56.10;;;;;;5013533;28;20022;-66
2023/07/11 08:54:22;;;;;;;8.02;4.70;;;45.40;56.20;;;;;;5014199;28;20022;-66
2023/07/11 08:56:49;;;;;;;6.95;4.97;;;45.80;55.30;;;;;;5013645;28;20029;-67
2023/07/11 08:59:24;;;;;;;7.72;4.65;;;46.10;54.70;;;;;;5014250;28;20088;-67
2023/07/11 09:02:02;;;;;;;4.80;4.35;;;45.40;54.20;;;;;;5014048;28;20510;-68
2023/07/11 09:04:29;;;;;;;6.45;4.97;;;43.80;55.20;;;;;;5013574;28;20030;-67
2023/07/11 09:06:59;;;;;;;6.40;4.78;;;43.60;55.60;;;;;;5013150;28;20114;-66
2023/07/11 09:09:25;;;;;;;6.68;4.70;;;44.00;55.60;;;;;;5012726;28;20462;-66
2023/07/11 09:11:56;;;;;;;5.68;4.80;;;45.20;55.00;;;;;;5012883;28;20387;-65
2023/07/11 09:14:33;;;;;;;9.82;5.15;;;46.70;53.50;;;;;;5013133;28;20426;-66
2023/07/11 09:17:35;;;;;;;9.35;5.10;;;47.60;52.10;;;;;;5013365;28;20053;-66
2023/07/11 09:20:40;;;;;;;7.05;4.65;;;46.40;52.80;;;;;;5013421;28;20022;-66
2023/07/11 09:23:33;;;;;;;6.70;4.78;;;47.20;52.10;;;;;;5012636;28;20032;-66
2023/07/11 09:26:02;;;;;;;7.60;4.57;;;46.00;52.40;;;;;;5012730;28;20018;-66
2023/07/11 09:28:30;;;;;;;4.90;4.40;;;44.20;52.90;;;;;;5012606;28;20434;-66
2023/07/11 09:31:02;;;;;;;5.97;4.38;;;43.30;54.20;;;;;;5012463;28;20101;-66
2023/07/11 09:33:36;;;;;;;9.02;5.47;;;43.70;54.40;;;;;;5012531;28;20022;-66
2023/07/11 09:36:11;;;;;;;5.28;4.72;;;44.80;53.70;;;;;;5012676;28;20064;-66
2023/07/11 09:38:49;;;;;;;7.68;4.68;;;45.50;52.90;;;;;;4994703;28;20037;-66
2023/07/11 09:41:39;;;;;;;7.32;4.97;;;46.40;52.30;;;;;;5014208;28;20433;-66
2023/07/11 09:44:09;;;;;;;5.30;4.43;;;46.40;52.00;;;;;;5016191;28;20030;-66
2023/07/11 09:46:35;;;;;;;8.57;4.70;;;44.80;52.80;;;;;;5016402;28;20430;-66
2023/07/11 09:49:03;;;;;;;7.80;5.22;;;45.80;53.10;;;;;;5016354;28;20033;-66
2023/07/11 09:51:42;;;;;;;5.70;5.03;;;47.20;52.30;;;;;;5015943;28;20022;-67
2023/07/11 09:54:23;;;;;;;9.55;4.88;;;47.30;51.60;;;;;;5015604;28;20029;-65
2023/07/11 09:56:50;;;;;;;9.25;4.75;;;48.20;51.30;;;;;;5016048;28;20042;-67
2023/07/11 09:59:17;;;;;;;8.60;5.05;;;48.30;51.10;;;;;;5015528;28;20022;-66
2023/07/11 10:01:43;;;;;;;5.38;4.88;;;48.90;51.60;;;;;;5015678;28;20065;-66
2023/07/11 10:04:17;;;;;;;5.70;4.90;;;49.20;50.70;;;;;;5015502;28;20022;-67
2023/07/11 10:06:51;;;;;;;10.98;5.57;;;48.50;50.90;;;;;;5015915;28;20029;-66
2023/07/11 10:09:24;;;;;;;8.02;5.53;;;48.50;50.80;;;;;;5015302;28;20033;-67
2023/07/11 10:12:12;;;;;;;6.97;4.68;;;46.90;51.50;;;;;;5015769;28;20022;-66
2023/07/11 10:14:43;;;;;;;6.63;4.88;;;46.90;51.90;;;;;;5016318;28;20026;-66
2023/07/11 10:17:20;;;;;;;6.82;4.93;;;45.20;53.10;;;;;;5015776;28;20018;-66
2023/07/11 10:19:57;;;;;;;5.70;4.50;;;46.20;52.50;;;;;;5015290;28;20148;-66
2023/07/11 10:22:26;;;;;;;5.50;4.65;;;46.00;52.90;;;;;;5015007;28;20057;-66
2023/07/11 10:24:59;;;;;;;6.30;5.43;;;46.10;53.10;;;;;;5015222;28;20025;-66
2023/07/11 10:27:30;;;;;;;8.82;5.43;;;45.90;52.80;;;;;;5015539;28;20022;-65
2023/07/11 10:29:58;;;;;;;7.57;4.65;;;45.50;53.60;;;;;;5015106;28;20363;-66
2023/07/11 10:32:47;;;;;;;8.10;5.35;;;45.70;53.40;;;;;;5014938;28;20024;-66
2023/07/11 10:35:18;;;;;;;9.55;5.32;;;46.50;53.00;;;;;;5014781;28;20121;-66
2023/07/11 10:38:04;;;;;;;8.25;5.05;;;46.90;52.30;;;;;;5014846;28;20049;-66
2023/07/11 10:40:51;;;;;;;9.00;4.93;;;46.90;52.20;;;;;;5014935;28;20386;-66
2023/07/11 10:43:26;;;;;;;7.97;4.95;;;46.80;52.20;;;;;;5015198;28;20018;-65
2023/07/11 10:46:04;;;;;;;6.03;4.60;;;46.60;52.60;;;;;;5015097;28;20129;-66
2023/07/11 10:48:35;;;;;;;6.60;4.75;;;46.70;52.60;;;;;;5014864;28;20113;-67
2023/07/11 10:51:10;;;;;;;6.50;4.85;;;46.40;52.80;;;;;;4997198;28;20025;-65
2023/07/11 10:54:08;;;;;;;7.90;5.07;;;46.70;53.00;;;;;;5014518;28;20018;-65
2023/07/11 10:56:39;;;;;;;7.20;5.72;;;46.70;52.70;;;;;;5014966;28;20084;-66
2023/07/11 10:59:04;;;;;;;6.03;5.00;;;46.40;52.50;;;;;;5014691;28;20105;-66
2023/07/11 11:01:43;;;;;;;5.65;5.05;;;45.40;53.20;;;;;;5014686;28;20564;-66
2023/07/11 11:04:28;;;;;;;11.23;4.93;;;45.30;53.60;;;;;;5015051;28;20030;-66
2023/07/11 11:07:33;;;;;;;8.85;4.75;;;45.80;53.40;;;;;;5014328;28;20029;-66
2023/07/11 11:10:15;;;;;;;9.55;5.60;;;46.00;53.40;;;;;;4981388;28;20131;-65
2023/07/11 11:13:02;;;;;;;9.93;5.60;;;46.10;53.10;;;;;;5014789;28;20447;-65
2023/07/11 11:15:51;;;;;;;8.55;5.25;;;46.30;52.80;;;;;;5014924;28;20060;-66
2023/07/11 11:18:22;;;;;;;8.90;5.10;;;45.00;53.40;;;;;;4997114;28;20022;-66
2023/07/11 11:21:06;;;;;;;8.05;5.00;;;43.40;54.50;;;;;;4996880;28;20562;-67
2023/07/11 11:23:58;;;;;;;7.10;5.18;;;41.10;55.60;;;;;;5014536;28;20032;-66
2023/07/11 11:26:38;;;;;;;7.68;5.45;;;39.10;57.70;;;;;;5014783;28;20104;-66
2023/07/11 11:29:25;;;;;;;11.60;5.30;;;38.30;59.10;;;;;;5014030;28;20022;-67
2023/07/11 11:32:08;;;;;;;12.05;5.30;;;37.60;60.40;;;;;;5014295;28;20117;-66
2023/07/11 11:34:59;;;;;;;8.13;5.28;;;36.80;61.90;;;;;;5014652;28;20026;-66
2023/07/11 11:37:40;;;;;;;7.03;5.35;;;36.40;62.70;;;;;;5014872;28;20029;-66
2023/07/11 11:40:18;;;;;;;7.97;5.47;;;36.40;62.90;;;;;;5014403;28;20025;-67
2023/07/11 11:42:45;;;;;;;7.72;5.07;;;36.20;63.50;;;;;;5014386;28;20018;-67
2023/07/11 11:45:17;;;;;;;7.15;5.03;;;36.10;63.90;;;;;;5015180;28;20088;-66
2023/07/11 11:47:44;;;;;;;7.03;5.40;;;36.10;64.50;;;;;;5013921;28;20026;-67
2023/07/11 11:50:16;;;;;;;7.90;5.47;;;35.90;64.70;;;;;;4997489;28;20072;-66
2023/07/11 11:52:42;;;;;;;7.03;5.15;;;35.80;64.70;;;;;;5013845;28;20049;-66
2023/07/11 11:55:25;;;;;;;7.05;5.05;;;35.70;65.20;;;;;;5014025;28;20034;-66
2023/07/11 11:57:51;;;;;;;8.50;5.25;;;35.60;65.40;;;;;;5013628;28;20431;-65
2023/07/11 12:00:39;;;;;;;10.93;5.55;;;35.50;65.50;;;;;;5013506;28;20427;-66
2023/07/11 12:03:17;;;;;;;8.30;5.68;;;35.20;66.20;;;;;;5013842;28;20471;-66
2023/07/11 12:05:49;;;;;;;6.43;5.47;;;35.30;65.90;;;;;;5013549;28;20026;-66
2023/07/11 12:08:31;;;;;;;9.75;6.15;;;35.30;66.50;;;;;;5012907;28;20417;-66
2023/07/11 12:11:08;;;;;;;5.68;4.55;;;35.30;66.70;;;;;;5007165;28;20080;-66
2023/07/11 12:13:42;;;;;;;10.30;6.60;;;35.30;67.00;;;;;;5013670;28;20025;-67
2023/07/11 12:16:30;;;;;;;9.73;6.07;;;35.20;67.20;;;;;;5013455;28;20045;-65
2023/07/11 12:18:57;;;;;;;9.52;5.53;;;35.00;67.50;;;;;;4995807;28;20037;-65
2023/07/11 12:21:29;;;;;;;11.80;5.55;;;35.00;67.70;;;;;;5013649;28;20447;-64
2023/07/11 12:24:23;;;;;;;10.00;5.68;;;35.00;67.90;;;;;;5013472;28;20021;-65
2023/07/11 12:26:51;;;;;;;10.05;5.63;;;35.20;67.40;;;;;;5013755;28;20165;-64
2023/07/11 12:29:36;;;;;;;8.52;5.13;;;35.20;67.70;;;;;;5013382;28;20026;-66
2023/07/11 12:32:33;;;;;;;9.15;5.35;;;35.10;66.50;;;;;;5007602;28;20033;-65
2023/07/11 12:35:04;;;;;;;9.52;5.85;;;34.90;67.00;;;;;;5004010;28;20053;-66
2023/07/11 12:38:05;;;;;;;9.93;5.10;;;34.80;67.10;;;;;;5010589;28;20096;-66
2023/07/11 12:40:37;;;;;;;10.40;5.68;;;35.00;67.00;;;;;;5012716;28;20352;-66
2023/07/11 12:43:14;;;;;;;6.32;5.03;;;34.90;66.60;;;;;;5012613;28;20037;-65
2023/07/11 12:45:48;;;;;;;7.45;5.22;;;34.80;66.40;;;;;;5004681;28;20022;-65
2023/07/11 12:48:20;;;;;;;8.10;5.90;;;34.80;66.60;;;;;;5001949;28;20106;-66
2023/07/11 12:50:49;;;;;;;8.52;4.93;;;35.00;66.90;;;;;;5013057;28;20040;-66
2023/07/11 12:53:15;;;;;;;8.93;5.70;;;35.10;66.30;;;;;;5012906;28;20030;-66
2023/07/11 12:55:43;;;;;;;8.15;4.95;;;35.00;66.30;;;;;;5011285;28;20550;-65
2023/07/11 12:58:20;;;;;;;8.40;5.32;;;35.00;66.60;;;;;;5000743;28;20146;-65
2023/07/11 13:00:47;;;;;;;8.93;5.05;;;35.10;66.70;;;;;;5012562;28;20033;-67
2023/07/11 13:03:33;;;;;;;6.90;5.38;;;35.10;66.40;;;;;;5013232;28;20044;-66
2023/07/11 13:06:22;;;;;;;7.10;5.47;;;35.20;66.70;;;;;;5013510;28;20033;-65
2023/07/11 13:08:48;;;;;;;9.32;5.40;;;35.20;66.70;;;;;;5012662;28;20479;-65
2023/07/11 13:11:22;;;;;;;7.82;5.30;;;35.20;66.60;;;;;;5013095;28;20538;-66
2023/07/11 13:13:49;;;;;;;10.38;5.78;;;35.20;66.80;;;;;;5013316;28;20022;-66
2023/07/11 13:16:15;;;;;;;9.68;5.70;;;35.00;67.00;;;;;;5014560;28;20414;-66
2023/07/11 13:18:48;;;;;;;9.70;5.35;;;35.00;67.20;;;;;;5017077;28;20482;-65
2023/07/11 13:21:15;;;;;;;6.32;5.72;;;35.00;67.30;;;;;;5016808;28;20421;-65
2023/07/11 13:23:43;;;;;;;7.45;5.88;;;35.10;67.40;;;;;;5016520;28;20036;-65
2023/07/11 13:26:10;;;;;;;9.15;6.07;;;35.10;67.10;;;;;;5016685;28;20034;-66
2023/07/11 13:28:39;;;;;;;8.93;5.72;;;35.00;66.70;;;;;;5016725;28;20067;-66
2023/07/11 13:31:07;;;;;;;7.88;5.53;;;35.00;66.90;;;;;;5016440;28;20433;-66
2023/07/11 13:33:35;;;;;;;10.85;5.90;;;34.90;67.40;;;;;;5016594;28;20101;-66
2023/07/11 13:36:12;;;;;;;9.93;6.38;;;34.80;67.80;;;;;;5016453;28;20021;-65
2023/07/11 13:38:48;;;;;;;8.25;5.55;;;34.70;67.90;;;;;;5014457;28;20083;-65
2023/07/11 13:41:17;;;;;;;11.02;5.65;;;34.80;68.00;;;;;;5005256;28;20491;-66
2023/07/11 13:43:45;;;;;;;8.73;5.13;;;35.10;67.30;;;;;;5006676;28;20027;-66
2023/07/11 13:46:13;;;;;;;8.40;4.97;;;35.20;67.40;;;;;;5006690;28;20021;-66
2023/07/11 13:48:43;;;;;;;13.05;6.60;;;35.30;67.20;;;;;;5002063;28;20041;-65
2023/07/11 13:51:24;;;;;;;12.30;6.43;;;35.30;66.50;;;;;;4996656;28;20106;-65
2023/07/11 13:53:52;;;;;;;10.00;5.57;;;35.30;66.50;;;;;;4997342;28;20023;-65
2023/07/11 13:56:17;;;;;;;7.30;5.68;;;35.30;66.50;;;;;;4996429;28;20076;-66
2023/07/11 13:58:44;;;;;;;7.90;5.50;;;35.40;66.60;;;;;;4996361;28;20101;-66
2023/07/11 14:01:23;;;;;;;12.05;5.50;;;35.50;66.20;;;;;;4996255;28;20120;-65
2023/07/11 14:03:51;;;;;;;9.45;5.65;;;35.60;65.00;;;;;;4996991;28;20471;-65
2023/07/11 14:06:18;;;;;;;8.48;5.68;;;35.50;65.10;;;;;;4999446;28;20030;-66
2023/07/11 14:08:45;;;;;;;9.27;5.65;;;35.50;65.60;;;;;;4997896;28;20029;-66
2023/07/11 14:11:19;;;;;;;7.85;5.45;;;35.60;65.30;;;;;;5015815;28;20026;-65
2023/07/11 14:13:45;;;;;;;6.40;5.07;;;35.60;64.90;;;;;;5015779;28;20041;-65
2023/07/11 14:16:10;;;;;;;8.45;5.60;;;35.70;65.60;;;;;;4998005;28;20426;-66
2023/07/11 14:18:36;;;;;;;9.80;5.45;;;35.70;64.90;;;;;;5015439;28;20030;-65
2023/07/11 14:21:02;;;;;;;11.50;5.97;;;35.60;65.40;;;;;;5015490;28;20496;-65
2023/07/11 14:23:30;;;;;;;7.43;6.05;;;35.60;65.20;;;;;;5015539;28;20022;-66
2023/07/11 14:25:56;;;;;;;12.77;5.75;;;35.60;65.00;;;;;;5015615;28;20044;-65
2023/07/11 14:28:23;;;;;;;8.95;6.30;;;35.70;65.10;;;;;;5014825;28;20029;-64
2023/07/11 14:30:49;;;;;;;8.38;6.00;;;35.60;64.70;;;;;;5014996;28;20021;-64
2023/07/11 14:33:17;;;;;;;7.60;5.55;;;35.60;65.00;;;;;;5015423;28;20412;-64
2023/07/11 14:35:44;;;;;;;23.13;12.57;;;35.80;64.90;;;;;;5015249;28;20565;-64
2023/07/11 14:38:15;;;;;;;9.75;6.75;;;35.80;64.60;;;;;;5014871;28;20040;-66
2023/07/11 14:40:41;;;;;;;9.98;6.95;;;35.80;64.20;;;;;;5007514;28;20104;-65
2023/07/11 14:43:18;;;;;;;10.93;6.35;;;35.70;63.80;;;;;;4997964;28;20473;-65
2023/07/11 14:45:43;;;;;;;8.00;6.30;;;35.80;63.90;;;;;;5002174;28;20379;-65
2023/07/11 14:48:15;;;;;;;8.35;6.03;;;35.80;63.70;;;;;;5004681;28;20030;-64
2023/07/11 14:50:41;;;;;;;10.30;5.97;;;35.80;63.40;;;;;;5014786;28;20068;-65
2023/07/11 14:53:32;;;;;;;10.25;6.63;;;35.80;62.70;;;;;;5012747;28;20017;-65
2023/07/11 14:55:59;;;;;;;9.55;6.22;;;35.70;63.10;;;;;;5014910;28;20049;-66
2023/07/11 14:58:25;;;;;;;7.65;6.20;;;35.60;63.50;;;;;;5014611;28;20030;-65
2023/07/11 15:00:51;;;;;;;10.05;6.28;;;35.40;63.80;;;;;;5014623;28;20144;-66
2023/07/11 15:03:19;;;;;;;8.73;6.22;;;35.50;63.80;;;;;;5015161;28;20041;-65
2023/07/11 15:05:44;;;;;;;8.68;5.97;;;35.50;64.00;;;;;;5015007;28;20048;-65
2023/07/11 15:08:24;;;;;;;7.70;6.10;;;35.50;63.50;;;;;;5014561;28;20526;-66
2023/07/11 15:11:11;;;;;;;8.77;5.78;;;35.50;64.20;;;;;;5014638;28;20415;-66
2023/07/11 15:13:38;;;;;;;7.68;6.10;;;35.40;64.30;;;;;;5014639;28;20018;-65
2023/07/11 15:16:03;;;;;;;9.95;6.20;;;35.50;63.80;;;;;;5014548;28;20026;-64
2023/07/11 15:18:29;;;;;;;7.85;6.35;;;35.40;64.00;;;;;;5014863;28;20025;-64
2023/07/11 15:20:55;;;;;;;9.80;5.93;;;35.40;64.20;;;;;;5014816;28;20034;-64
2023/07/11 15:23:20;;;;;;;7.35;6.38;;;35.30;64.50;;;;;;5014606;28;20025;-64
2023/07/11 15:25:47;;;;;;;10.18;6.22;;;35.30;64.60;;;;;;5009379;28;20053;-64
2023/07/11 15:28:21;;;;;;;8.35;6.05;;;35.30;64.70;;;;;;5014413;28;20088;-64
2023/07/11 15:30:49;;;;;;;6.55;5.85;;;35.30;64.90;;;;;;4994556;28;20026;-65
2023/07/11 15:33:27;;;;;;;11.38;6.25;;;35.10;65.00;;;;;;4994760;28;20444;-64
2023/07/11 15:35:53;;;;;;;7.65;5.78;;;35.10;64.90;;;;;;4994558;28;20018;-64
2023/07/11 15:38:20;;;;;;;11.95;6.50;;;35.00;65.20;;;;;;5012957;28;20036;-65
2023/07/11 15:40:48;;;;;;;9.23;6.30;;;34.90;65.10;;;;;;5013815;28;20030;-64
2023/07/11 15:43:26;;;;;;;8.38;6.75;;;34.80;65.20;;;;;;5013916;28;20029;-64
2023/07/11 15:45:52;;;;;;;10.80;6.20;;;34.80;65.40;;;;;;5013835;28;20410;-65
2023/07/11 15:48:18;;;;;;;10.90;6.05;;;34.60;65.80;;;;;;5014025;28;20034;-64
2023/07/11 15:50:44;;;;;;;10.18;7.13;;;34.60;66.40;;;;;;5013593;28;20026;-65
2023/07/11 15:53:10;;;;;;;10.27;6.93;;;34.50;66.70;;;;;;5013827;28;20042;-64
2023/07/11 15:55:37;;;;;;;11.60;7.07;;;34.30;66.80;;;;;;5013349;28;20021;-64
2023/07/11 15:58:04;;;;;;;11.52;6.60;;;34.20;67.30;;;;;;5013961;28;20042;-65
2023/07/11 16:00:32;;;;;;;9.90;6.65;;;34.10;67.80;;;;;;5013525;28;20142;-65
2023/07/11 16:02:58;;;;;;;10.80;6.20;;;33.90;67.80;;;;;;5007982;28;20124;-65
2023/07/11 16:05:36;;;;;;;7.90;7.10;;;33.80;68.00;;;;;;5002200;28;20049;-65
2023/07/11 16:08:02;;;;;;;11.50;7.55;;;33.60;68.00;;;;;;4980998;28;20046;-65
2023/07/11 16:10:32;;;;;;;9.93;7.07;;;33.60;68.50;;;;;;4975941;28;20326;-65
2023/07/11 16:12:58;;;;;;;8.45;6.82;;;33.40;68.70;;;;;;5004260;28;20092;-65
2023/07/11 16:15:28;;;;;;;8.85;6.43;;;33.30;69.00;;;;;;5015068;28;20022;-67
2023/07/11 16:17:53;;;;;;;11.60;6.38;;;33.30;69.60;;;;;;5012865;28;20069;-67
2023/07/11 16:20:23;;;;;;;11.48;6.07;;;33.50;69.50;;;;;;5013738;28;20022;-66
2023/07/11 16:22:49;;;;;;;9.05;6.00;;;33.30;69.80;;;;;;5014368;28;20030;-66
2023/07/11 16:25:16;;;;;;;9.98;5.47;;;33.30;70.40;;;;;;5013487;28;20334;-65
2023/07/11 16:27:43;;;;;;;9.45;6.03;;;33.30;69.80;;;;;;5013231;28;20018;-66
2023/07/11 16:30:19;;;;;;;9.50;5.95;;;33.20;69.90;;;;;;5013209;28;20068;-65
2023/07/11 16:32:46;;;;;;;12.98;5.75;;;33.10;69.50;;;;;;5013239;28;20033;-66
2023/07/11 16:35:13;;;;;;;6.45;5.03;;;32.90;69.50;;;;;;5013175;28;20045;-66
2023/07/11 16:37:40;;;;;;;8.98;5.03;;;32.90;69.20;;;;;;5013206;28;20014;-66
2023/07/11 16:40:14;;;;;;;8.10;4.68;;;32.70;69.20;;;;;;5012842;28;20026;-67
2023/07/11 16:42:41;;;;;;;8.00;4.68;;;32.50;69.90;;;;;;5013241;28;20029;-66
2023/07/11 16:45:11;;;;;;;7.03;4.70;;;32.40;69.50;;;;;;5013524;28;20018;-67
2023/07/11 16:47:37;;;;;;;6.13;4.80;;;32.20;70.00;;;;;;5012981;28;20057;-67
2023/07/11 16:50:02;;;;;;;7.47;4.82;;;32.20;70.00;;;;;;5013966;28;20445;-67
2023/07/11 16:52:28;;;;;;;6.85;4.20;;;32.30;69.90;;;;;;5016923;28;20072;-66
2023/07/11 16:54:57;;;;;;;9.55;4.63;;;32.30;69.90;;;;;;5011221;28;20053;-66
2023/07/11 16:57:22;;;;;;;7.45;4.25;;;32.30;70.20;;;;;;5013613;28;20036;-67
2023/07/11 16:59:48;;;;;;;6.53;4.53;;;32.10;69.40;;;;;;4999072;28;20129;-65
2023/07/11 17:02:23;;;;;;;6.75;4.13;;;32.00;69.80;;;;;;5016769;28;20072;-66
2023/07/11 17:04:50;;;;;;;6.10;4.53;;;31.90;69.90;;;;;;5015348;28;20026;-66
2023/07/11 17:07:16;;;;;;;8.20;4.82;;;31.70;69.90;;;;;;5016640;28;20056;-66
2023/07/11 17:09:42;;;;;;;6.38;4.10;;;31.60;70.20;;;;;;5016761;28;20040;-66
2023/07/11 17:12:10;;;;;;;7.55;4.55;;;31.60;69.70;;;;;;5016580;28;20029;-67